Time;durP1;ratioP1;P1;durP2;ratioP2;P2;SDS_P1;SDS_P2;PMS_P1;PMS_P2;Temp;Humidity;BMP_temperature;BMP_pressure;BME280_temperature;BME280_humidity;BME280_pressure;Samples;Min_cycle;Max_cycle;Signal;HPM_P1;HPM_P2
2023/10/04 00:02:09;;;;;;;2.17;1.97;;;12.30;99.90;;;;;;925082;151;27944;-76
2023/10/04 00:04:34;;;;;;;2.40;1.77;;;12.30;99.90;;;;;;937825;150;27360;-80
2023/10/04 00:07:04;;;;;;;2.30;2.10;;;12.30;99.90;;;;;;937649;150;27460;-80
2023/10/04 00:09:27;;;;;;;2.50;2.30;;;12.20;99.90;;;;;;939915;148;27357;-79
2023/10/04 00:11:54;;;;;;;2.33;1.97;;;12.20;99.90;;;;;;937159;150;27397;-79
2023/10/04 00:14:22;;;;;;;2.20;1.90;;;12.20;99.90;;;;;;939822;150;27447;-79
2023/10/04 00:16:47;;;;;;;2.70;1.87;;;12.20;99.90;;;;;;939792;148;27312;-80
2023/10/04 00:19:14;;;;;;;4.53;2.10;;;12.20;99.90;;;;;;941628;148;27243;-79
2023/10/04 00:21:41;;;;;;;3.97;2.17;;;12.20;99.90;;;;;;926368;151;27350;-78
2023/10/04 00:24:09;;;;;;;2.50;2.17;;;12.10;99.90;;;;;;925913;151;27448;-75
2023/10/04 00:26:34;;;;;;;2.43;1.90;;;12.10;99.90;;;;;;937501;150;27357;-80
2023/10/04 00:29:00;;;;;;;4.43;2.23;;;12.10;99.90;;;;;;940709;148;27352;-76
2023/10/04 00:31:28;;;;;;;3.50;1.93;;;12.10;99.90;;;;;;936832;150;27379;-75
2023/10/04 00:33:53;;;;;;;2.20;2.00;;;12.10;99.90;;;;;;937900;148;27258;-75
2023/10/04 00:36:20;;;;;;;2.43;2.07;;;12.10;99.90;;;;;;937350;150;27419;-75
2023/10/04 00:38:47;;;;;;;3.67;1.87;;;12.10;99.90;;;;;;936267;150;27434;-75
2023/10/04 00:41:13;;;;;;;3.80;2.70;;;12.20;99.90;;;;;;938847;150;27402;-75
2023/10/04 00:43:49;;;;;;;2.93;2.00;;;12.20;99.90;;;;;;939622;150;27284;-78
2023/10/04 00:46:15;;;;;;;1.80;1.70;;;12.20;99.90;;;;;;937785;150;27364;-75
2023/10/04 00:48:43;;;;;;;2.20;2.00;;;12.20;99.90;;;;;;938969;150;27392;-74
2023/10/04 00:51:09;;;;;;;2.37;2.17;;;12.20;99.90;;;;;;941349;148;27349;-76
2023/10/04 00:53:35;;;;;;;2.73;2.17;;;12.20;99.90;;;;;;938722;150;27397;-75
2023/10/04 00:56:02;;;;;;;3.07;2.23;;;12.20;99.90;;;;;;937775;150;27474;-75
2023/10/04 00:58:28;;;;;;;4.33;1.90;;;12.20;99.90;;;;;;935156;150;27413;-75
2023/10/04 01:00:55;;;;;;;3.97;2.47;;;12.20;99.90;;;;;;938143;148;27353;-74
2023/10/04 01:03:24;;;;;;;4.27;2.77;;;12.10;99.90;;;;;;934248;150;27460;-75
2023/10/04 01:05:50;;;;;;;3.20;2.10;;;12.10;99.90;;;;;;933610;150;27828;-76
2023/10/04 01:08:15;;;;;;;2.77;2.40;;;12.10;99.90;;;;;;935804;148;27468;-74
2023/10/04 01:10:43;;;;;;;3.43;2.27;;;12.10;99.90;;;;;;934081;150;27386;-75
2023/10/04 01:13:09;;;;;;;3.20;2.03;;;12.10;99.90;;;;;;937443;148;27465;-75
2023/10/04 01:15:39;;;;;;;2.63;2.23;;;12.10;99.90;;;;;;934133;150;28336;-75
2023/10/04 01:18:01;;;;;;;3.60;1.90;;;12.00;99.90;;;;;;933101;150;27444;-75
2023/10/04 01:20:30;;;;;;;2.67;2.27;;;12.00;99.90;;;;;;934020;150;27346;-76
2023/10/04 01:23:06;;;;;;;3.40;2.57;;;12.00;99.90;;;;;;934805;150;27504;-75
2023/10/04 01:25:30;;;;;;;3.73;3.07;;;11.90;99.90;;;;;;921126;151;27360;-75
2023/10/04 01:27:56;;;;;;;2.50;2.17;;;11.90;99.90;;;;;;922842;151;27377;-75
2023/10/04 01:30:23;;;;;;;2.13;1.93;;;11.90;99.90;;;;;;938111;148;27454;-76
2023/10/04 01:32:53;;;;;;;5.93;2.20;;;11.80;99.90;;;;;;938923;148;27395;-76
2023/10/04 01:35:23;;;;;;;3.33;2.33;;;11.80;99.90;;;;;;934809;150;27476;-75
2023/10/04 01:37:46;;;;;;;3.83;2.03;;;11.80;99.90;;;;;;933929;151;27454;-80
2023/10/04 01:40:12;;;;;;;2.47;2.27;;;11.80;99.90;;;;;;937121;148;27441;-79
2023/10/04 01:42:40;;;;;;;2.53;2.13;;;11.80;99.90;;;;;;928170;150;27360;-80
2023/10/04 01:45:05;;;;;;;3.40;2.40;;;11.80;99.90;;;;;;940635;148;27485;-79
2023/10/04 01:47:32;;;;;;;2.53;2.33;;;11.70;99.90;;;;;;950203;148;27340;-80
2023/10/04 01:49:58;;;;;;;3.97;2.40;;;11.70;99.90;;;;;;949698;148;27277;-78
2023/10/04 01:52:25;;;;;;;2.70;2.23;;;11.70;99.90;;;;;;949370;148;27350;-77
2023/10/04 01:54:53;;;;;;;2.07;1.93;;;11.70;99.90;;;;;;950674;148;27364;-75
2023/10/04 01:57:18;;;;;;;2.60;2.03;;;11.60;99.90;;;;;;945586;148;27424;-79
2023/10/04 01:59:45;;;;;;;2.63;2.20;;;11.60;99.90;;;;;;953724;146;27236;-79
2023/10/04 02:02:11;;;;;;;3.27;2.07;;;11.60;99.90;;;;;;948908;148;27477;-79
2023/10/04 02:04:39;;;;;;;3.43;2.50;;;11.60;99.90;;;;;;950314;148;27436;-79
2023/10/04 02:07:04;;;;;;;2.10;1.90;;;11.60;99.90;;;;;;951184;148;27281;-75
2023/10/04 02:09:31;;;;;;;2.70;2.10;;;11.60;99.90;;;;;;949520;148;27398;-78
2023/10/04 02:11:58;;;;;;;2.63;2.10;;;11.60;99.90;;;;;;949940;148;27309;-76
2023/10/04 02:14:25;;;;;;;2.90;2.30;;;11.60;99.90;;;;;;950776;148;27371;-79
2023/10/04 02:16:52;;;;;;;5.47;2.60;;;11.50;99.90;;;;;;950271;148;27409;-79
2023/10/04 02:19:18;;;;;;;3.53;2.30;;;11.60;99.90;;;;;;950432;148;27424;-80
2023/10/04 02:21:44;;;;;;;2.50;2.30;;;11.60;99.90;;;;;;950513;148;27407;-79
2023/10/04 02:24:11;;;;;;;2.40;2.20;;;11.50;99.90;;;;;;950452;148;27422;-77
2023/10/04 02:26:37;;;;;;;4.03;2.23;;;11.50;99.90;;;;;;949794;148;27367;-78
2023/10/04 02:29:04;;;;;;;4.03;2.10;;;11.50;99.90;;;;;;950523;148;28836;-77
2023/10/04 02:31:30;;;;;;;3.23;2.20;;;11.50;99.90;;;;;;950266;148;27430;-80
2023/10/04 02:33:57;;;;;;;2.20;2.00;;;11.50;99.90;;;;;;938148;148;27347;-79
2023/10/04 02:36:23;;;;;;;2.13;2.03;;;11.60;99.90;;;;;;949436;148;27315;-77
2023/10/04 02:38:50;;;;;;;3.27;2.60;;;11.50;99.90;;;;;;950517;148;27355;-80
2023/10/04 02:41:17;;;;;;;2.53;2.33;;;11.50;99.90;;;;;;951077;148;27269;-79
2023/10/04 02:43:43;;;;;;;4.17;2.40;;;11.60;99.90;;;;;;949949;148;27293;-77
2023/10/04 02:46:10;;;;;;;2.13;2.00;;;11.60;99.90;;;;;;937573;148;27453;-80
2023/10/04 02:48:36;;;;;;;2.83;2.30;;;11.60;99.90;;;;;;934495;149;27301;-76
2023/10/04 02:51:04;;;;;;;3.90;2.63;;;11.60;99.90;;;;;;933691;149;27378;-77
2023/10/04 02:53:29;;;;;;;2.97;2.30;;;11.60;99.90;;;;;;949094;146;27455;-79
2023/10/04 02:55:57;;;;;;;4.10;2.20;;;11.60;99.90;;;;;;933284;149;27405;-76
2023/10/04 02:58:23;;;;;;;4.83;2.87;;;11.60;99.90;;;;;;934743;149;27335;-76
2023/10/04 03:00:50;;;;;;;2.80;2.10;;;11.60;99.90;;;;;;954469;146;27259;-78
2023/10/04 03:03:19;;;;;;;2.70;2.27;;;11.60;99.90;;;;;;933393;148;27305;-79
2023/10/04 03:05:44;;;;;;;2.60;2.40;;;11.60;99.90;;;;;;949527;146;27303;-79
2023/10/04 03:08:09;;;;;;;3.97;2.30;;;11.60;99.90;;;;;;937991;149;27360;-78
2023/10/04 03:10:36;;;;;;;2.73;2.07;;;11.60;99.90;;;;;;933652;149;27411;-79
2023/10/04 03:13:02;;;;;;;2.97;2.67;;;11.70;99.90;;;;;;937753;149;27435;-79
2023/10/04 03:15:29;;;;;;;3.37;2.47;;;11.70;99.90;;;;;;937693;149;27424;-79
2023/10/04 03:17:56;;;;;;;2.63;2.10;;;11.70;99.90;;;;;;946547;148;27277;-79
2023/10/04 03:20:30;;;;;;;3.03;2.70;;;11.70;99.90;;;;;;946889;148;27337;-79
2023/10/04 03:22:49;;;;;;;3.03;2.30;;;11.70;99.90;;;;;;946297;148;27345;-79
2023/10/04 03:25:15;;;;;;;5.47;3.07;;;11.60;99.90;;;;;;946573;148;27360;-79
2023/10/04 03:27:44;;;;;;;2.30;2.10;;;11.60;99.90;;;;;;947728;148;27317;-79
2023/10/04 03:30:09;;;;;;;5.10;2.90;;;11.60;99.90;;;;;;946428;148;27426;-79
2023/10/04 03:32:35;;;;;;;3.07;2.20;;;11.60;99.90;;;;;;944790;148;27388;-79
2023/10/04 03:35:02;;;;;;;3.20;2.40;;;11.60;99.90;;;;;;932805;149;27340;-79
2023/10/04 03:37:31;;;;;;;3.00;2.30;;;11.70;99.90;;;;;;953933;146;27295;-79
2023/10/04 03:39:55;;;;;;;2.60;2.40;;;11.70;99.90;;;;;;946110;148;27470;-79
2023/10/04 03:42:23;;;;;;;3.93;2.20;;;11.70;99.90;;;;;;947546;148;27388;-79
2023/10/04 03:44:48;;;;;;;2.57;2.27;;;11.70;99.90;;;;;;948869;146;27350;-79
2023/10/04 03:47:15;;;;;;;2.50;2.30;;;11.70;99.90;;;;;;937119;149;27488;-78
2023/10/04 03:49:41;;;;;;;2.63;2.27;;;11.70;99.90;;;;;;949328;146;27319;-79
2023/10/04 03:52:08;;;;;;;2.10;2.00;;;11.70;99.90;;;;;;933004;149;27448;-79
2023/10/04 03:54:36;;;;;;;3.10;2.50;;;11.70;99.90;;;;;;932714;149;27776;-79
2023/10/04 03:57:06;;;;;;;2.50;2.20;;;11.70;99.90;;;;;;946430;148;27372;-82
2023/10/04 03:59:27;;;;;;;2.97;2.33;;;11.60;99.90;;;;;;948369;146;27327;-83
2023/10/04 04:01:54;;;;;;;5.47;2.60;;;11.60;99.90;;;;;;931912;149;27340;-82
2023/10/04 04:04:21;;;;;;;3.93;2.50;;;11.60;99.90;;;;;;949106;146;28435;-82
2023/10/04 04:06:49;;;;;;;2.60;2.40;;;11.60;99.90;;;;;;932625;149;27301;-82
2023/10/04 04:09:14;;;;;;;3.83;2.30;;;11.60;99.90;;;;;;951778;146;27391;-82
2023/10/04 04:11:40;;;;;;;2.50;2.30;;;11.60;99.90;;;;;;948973;146;27310;-79
2023/10/04 04:14:08;;;;;;;4.20;2.23;;;11.50;99.90;;;;;;953211;146;27355;-77
2023/10/04 04:16:34;;;;;;;2.77;2.13;;;11.50;99.90;;;;;;939910;148;27376;-82
2023/10/04 04:19:01;;;;;;;3.13;2.07;;;11.50;99.90;;;;;;933285;149;27284;-79
2023/10/04 04:21:33;;;;;;;1.87;1.73;;;11.50;99.90;;;;;;949536;146;27330;-79
2023/10/04 04:23:53;;;;;;;2.47;2.27;;;11.40;99.90;;;;;;948299;146;27326;-77
2023/10/04 04:26:23;;;;;;;2.33;2.00;;;11.40;99.90;;;;;;952097;146;27300;-80
2023/10/04 04:28:47;;;;;;;3.70;2.50;;;11.40;99.90;;;;;;938329;149;27367;-82
2023/10/04 04:31:19;;;;;;;3.30;1.90;;;11.30;99.90;;;;;;932815;151;27420;-82
2023/10/04 04:33:42;;;;;;;2.43;2.23;;;11.30;99.90;;;;;;933175;149;27460;-81
2023/10/04 04:36:16;;;;;;;2.43;2.20;;;11.30;99.90;;;;;;949455;146;27414;-79
2023/10/04 04:38:38;;;;;;;2.40;2.20;;;11.20;99.90;;;;;;947331;146;27334;-80
2023/10/04 04:41:05;;;;;;;2.63;2.10;;;11.20;99.90;;;;;;948939;146;27388;-82
2023/10/04 04:43:37;;;;;;;3.10;2.17;;;11.20;99.90;;;;;;954014;146;27404;-81
2023/10/04 04:46:01;;;;;;;2.17;1.97;;;11.10;99.90;;;;;;946298;148;27455;-80
2023/10/04 04:48:29;;;;;;;2.47;2.27;;;11.20;99.90;;;;;;950712;148;27316;-80
2023/10/04 04:50:54;;;;;;;5.43;2.20;;;11.10;99.90;;;;;;951191;148;27348;-75
2023/10/04 04:53:22;;;;;;;3.37;2.20;;;11.10;99.90;;;;;;954436;145;27357;-80
2023/10/04 04:55:48;;;;;;;3.70;2.37;;;11.10;99.90;;;;;;951410;145;27407;-75
2023/10/04 04:58:14;;;;;;;2.30;2.10;;;11.20;99.90;;;;;;956700;145;28266;-80
2023/10/04 05:00:43;;;;;;;3.33;2.30;;;11.20;99.90;;;;;;951545;148;27254;-78
2023/10/04 05:03:07;;;;;;;2.80;2.20;;;11.20;99.90;;;;;;951428;148;27348;-76
2023/10/04 05:05:34;;;;;;;2.87;2.30;;;11.20;99.90;;;;;;952139;148;27328;-82
2023/10/04 05:08:00;;;;;;;2.63;2.30;;;11.20;99.90;;;;;;951709;148;27265;-77
2023/10/04 05:10:34;;;;;;;3.07;2.30;;;11.20;99.90;;;;;;951500;147;27887;-77
2023/10/04 05:12:53;;;;;;;2.47;2.03;;;11.20;99.90;;;;;;950711;148;27340;-78
2023/10/04 05:15:31;;;;;;;3.03;2.23;;;11.20;99.90;;;;;;952260;148;27344;-77
2023/10/04 05:17:52;;;;;;;2.57;2.30;;;11.20;99.90;;;;;;949607;148;27346;-78
2023/10/04 05:20:21;;;;;;;5.53;2.53;;;11.20;99.90;;;;;;951087;148;27868;-78
2023/10/04 05:22:52;;;;;;;3.93;2.27;;;11.20;99.90;;;;;;951899;148;27520;-75
2023/10/04 05:25:15;;;;;;;7.00;2.50;;;11.30;99.90;;;;;;951239;148;27359;-75
2023/10/04 05:27:42;;;;;;;3.50;2.23;;;11.30;99.90;;;;;;950682;148;27476;-75
2023/10/04 05:30:13;;;;;;;2.93;1.90;;;11.30;99.90;;;;;;950884;148;27320;-75
2023/10/04 05:32:34;;;;;;;2.77;2.20;;;11.40;99.90;;;;;;951178;148;27469;-75
2023/10/04 05:35:01;;;;;;;3.77;2.37;;;11.40;99.90;;;;;;951883;148;27319;-75
2023/10/04 05:37:28;;;;;;;2.27;2.07;;;11.40;99.90;;;;;;938471;148;27436;-75
2023/10/04 05:39:54;;;;;;;2.60;2.30;;;11.40;99.90;;;;;;937351;148;27374;-75
2023/10/04 05:42:21;;;;;;;3.07;2.67;;;11.40;99.90;;;;;;937781;148;27331;-75
2023/10/04 05:44:47;;;;;;;3.33;2.30;;;11.50;99.90;;;;;;936798;149;27714;-75
2023/10/04 05:47:14;;;;;;;6.03;2.43;;;11.50;99.90;;;;;;937257;147;27384;-75
2023/10/04 05:49:41;;;;;;;2.70;2.30;;;11.50;99.90;;;;;;934061;149;27471;-75
2023/10/04 05:52:07;;;;;;;4.03;2.23;;;11.50;99.90;;;;;;933865;149;27848;-75
2023/10/04 05:54:34;;;;;;;3.90;2.57;;;11.60;99.90;;;;;;948982;146;27295;-74
2023/10/04 05:57:02;;;;;;;3.47;2.23;;;11.60;99.90;;;;;;948202;146;27319;-75
2023/10/04 05:59:27;;;;;;;2.97;2.40;;;11.60;99.90;;;;;;948900;146;27344;-75
2023/10/04 06:01:53;;;;;;;2.83;2.30;;;11.60;99.90;;;;;;949372;146;27355;-75
2023/10/04 06:04:20;;;;;;;2.97;2.50;;;11.60;99.90;;;;;;949681;146;27327;-75
2023/10/04 06:06:47;;;;;;;4.53;2.40;;;11.70;99.90;;;;;;936214;149;27335;-75
2023/10/04 06:09:26;;;;;;;2.97;2.07;;;11.70;99.90;;;;;;934624;149;27802;-75
2023/10/04 06:11:40;;;;;;;3.27;2.52;;;11.90;99.90;;;;;;930897;149;27345;-75
2023/10/04 06:14:06;;;;;;;5.00;3.03;;;11.90;99.90;;;;;;948278;146;27338;-76
2023/10/04 06:16:33;;;;;;;5.90;2.40;;;12.10;99.90;;;;;;949798;146;27346;-76
2023/10/04 06:19:01;;;;;;;3.37;2.60;;;12.20;99.90;;;;;;934205;149;27452;-75
2023/10/04 06:21:26;;;;;;;3.97;2.53;;;12.30;99.90;;;;;;932347;149;27310;-75
2023/10/04 06:23:53;;;;;;;4.13;2.57;;;12.40;99.90;;;;;;947189;148;27333;-76
2023/10/04 06:26:19;;;;;;;3.83;2.30;;;12.60;99.90;;;;;;947917;148;27353;-76
2023/10/04 06:28:46;;;;;;;2.52;2.17;;;12.70;99.90;;;;;;946930;148;27321;-76
2023/10/04 06:31:13;;;;;;;4.22;2.33;;;12.80;99.90;;;;;;949556;146;27348;-75
2023/10/04 06:33:40;;;;;;;2.90;2.25;;;12.90;99.90;;;;;;948680;146;27333;-76
2023/10/04 06:36:06;;;;;;;4.43;2.30;;;12.90;99.90;;;;;;950780;146;27400;-76
2023/10/04 06:38:32;;;;;;;11.03;3.30;;;13.00;99.90;;;;;;954063;146;27381;-76
2023/10/04 06:40:59;;;;;;;4.72;2.83;;;13.20;99.90;;;;;;946395;148;27459;-75
2023/10/04 06:43:25;;;;;;;2.90;2.10;;;13.30;99.90;;;;;;947513;148;27368;-77
2023/10/04 06:45:52;;;;;;;2.60;2.20;;;13.60;99.90;;;;;;945811;148;27335;-76
2023/10/04 06:48:19;;;;;;;2.97;1.97;;;13.80;99.90;;;;;;945487;148;27357;-76
2023/10/04 06:50:49;;;;;;;3.05;2.22;;;14.20;99.90;;;;;;946761;148;27397;-75
2023/10/04 06:53:12;;;;;;;4.33;2.45;;;14.50;99.90;;;;;;946698;148;27307;-76
2023/10/04 06:55:39;;;;;;;2.77;2.10;;;14.90;99.90;;;;;;948256;146;27357;-77
2023/10/04 06:58:06;;;;;;;3.12;2.35;;;15.40;99.90;;;;;;945945;148;27394;-76
2023/10/04 07:00:36;;;;;;;3.05;2.00;;;15.90;99.90;;;;;;933506;149;27331;-76
2023/10/04 07:02:58;;;;;;;3.77;2.70;;;16.50;99.90;;;;;;952091;146;27375;-76
2023/10/04 07:05:26;;;;;;;2.62;1.90;;;17.10;99.90;;;;;;950653;148;27325;-76
2023/10/04 07:07:56;;;;;;;2.33;1.98;;;17.80;99.90;;;;;;931550;151;27324;-76
2023/10/04 07:10:21;;;;;;;2.12;1.92;;;18.40;99.90;;;;;;939753;149;27500;-75
2023/10/04 07:12:47;;;;;;;2.72;1.70;;;19.10;99.90;;;;;;932419;149;27318;-76
2023/10/04 07:15:14;;;;;;;2.08;1.55;;;19.70;99.90;;;;;;950531;146;27459;-76
2023/10/04 07:17:41;;;;;;;2.95;1.92;;;20.30;99.90;;;;;;942462;148;27331;-76
2023/10/04 07:20:07;;;;;;;3.20;2.17;;;20.90;99.90;;;;;;931633;149;27252;-76
2023/10/04 07:22:36;;;;;;;2.55;2.00;;;21.40;99.90;;;;;;940240;149;27465;-77
2023/10/04 07:25:01;;;;;;;1.80;1.65;;;21.90;99.90;;;;;;932579;149;27357;-76
2023/10/04 07:27:27;;;;;;;2.45;2.10;;;22.40;99.90;;;;;;932645;149;27361;-77
2023/10/04 07:29:54;;;;;;;2.20;1.85;;;22.90;99.90;;;;;;934234;149;27361;-80
2023/10/04 07:32:20;;;;;;;2.80;1.85;;;23.30;98.80;;;;;;948181;146;27351;-79
2023/10/04 07:34:47;;;;;;;2.98;2.12;;;23.70;96.90;;;;;;948871;146;27972;-80
2023/10/04 07:37:13;;;;;;;4.05;1.72;;;24.10;95.00;;;;;;950229;146;27233;-80
2023/10/04 07:39:40;;;;;;;4.28;2.22;;;24.50;93.40;;;;;;941608;149;27767;-79
2023/10/04 07:42:07;;;;;;;2.85;2.15;;;24.90;92.60;;;;;;940050;149;27764;-80
2023/10/04 07:44:33;;;;;;;3.92;1.60;;;25.30;91.60;;;;;;939404;149;27400;-76
2023/10/04 07:47:00;;;;;;;3.33;1.82;;;25.70;90.30;;;;;;940860;149;27323;-79
2023/10/04 07:49:26;;;;;;;2.27;1.52;;;26.10;88.00;;;;;;932458;149;27370;-79
2023/10/04 07:51:53;;;;;;;2.58;1.65;;;26.50;87.20;;;;;;939998;148;27449;-80
2023/10/04 07:54:20;;;;;;;3.40;1.57;;;26.90;86.50;;;;;;933673;150;27346;-81
2023/10/04 07:56:48;;;;;;;4.33;1.75;;;27.30;83.30;;;;;;932199;149;27335;-79
2023/10/04 07:59:13;;;;;;;1.92;1.50;;;27.70;80.30;;;;;;945648;148;27471;-79
2023/10/04 08:01:39;;;;;;;2.40;2.08;;;28.10;78.30;;;;;;947890;148;27326;-80
2023/10/04 08:04:07;;;;;;;1.70;1.50;;;28.40;76.80;;;;;;948129;148;27372;-79
2023/10/04 08:06:33;;;;;;;2.72;1.70;;;28.70;75.30;;;;;;946162;148;27407;-80
2023/10/04 08:08:59;;;;;;;3.20;1.70;;;29.10;74.20;;;;;;952467;146;27328;-80
2023/10/04 08:11:27;;;;;;;2.52;1.52;;;29.40;73.10;;;;;;936185;149;27364;-80
2023/10/04 08:13:52;;;;;;;2.37;1.55;;;29.80;71.30;;;;;;932858;149;27317;-80
2023/10/04 08:16:19;;;;;;;1.92;1.60;;;30.10;70.30;;;;;;938742;149;27360;-76
2023/10/04 08:18:45;;;;;;;2.10;1.67;;;30.40;69.20;;;;;;948779;146;27362;-80
2023/10/04 08:21:12;;;;;;;1.90;1.70;;;30.80;68.20;;;;;;949814;146;27312;-78
2023/10/04 08:23:39;;;;;;;3.58;1.70;;;31.10;66.60;;;;;;949125;146;27355;-80
2023/10/04 08:26:05;;;;;;;3.22;1.75;;;31.40;65.70;;;;;;948164;146;27328;-80
2023/10/04 08:28:32;;;;;;;2.22;1.62;;;31.60;64.40;;;;;;931880;149;27318;-78
2023/10/04 08:30:58;;;;;;;2.72;1.65;;;31.90;63.30;;;;;;931234;149;27316;-80
2023/10/04 08:33:31;;;;;;;3.60;1.40;;;32.00;62.80;;;;;;933855;148;27348;-77
2023/10/04 08:35:52;;;;;;;2.22;1.40;;;32.20;61.40;;;;;;935963;149;27349;-81
2023/10/04 08:38:18;;;;;;;2.83;1.37;;;32.30;60.50;;;;;;947067;146;27370;-77
2023/10/04 08:40:45;;;;;;;1.72;1.47;;;32.50;59.30;;;;;;932806;149;27438;-77
2023/10/04 08:43:11;;;;;;;3.33;1.95;;;32.50;58.80;;;;;;937257;149;27488;-77
2023/10/04 08:45:39;;;;;;;3.22;1.67;;;32.50;58.40;;;;;;934455;149;27754;-77
2023/10/04 08:48:05;;;;;;;3.72;1.82;;;32.50;58.10;;;;;;947678;146;27465;-77
2023/10/04 08:50:40;;;;;;;2.95;1.92;;;32.60;58.00;;;;;;947670;147;27375;-77
2023/10/04 08:53:21;;;;;;;1.92;1.42;;;32.60;57.40;;;;;;952421;147;26292;-77
2023/10/04 08:55:54;;;;;;;6.97;1.70;;;32.60;57.20;;;;;;967364;145;26201;-77
2023/10/04 08:58:20;;;;;;;1.47;1.32;;;32.70;57.10;;;;;;946676;148;27387;-77
2023/10/04 09:00:48;;;;;;;2.90;1.32;;;32.80;56.70;;;;;;965285;148;26274;-77
2023/10/04 09:03:13;;;;;;;2.22;1.40;;;32.90;56.30;;;;;;963855;148;27414;-77
2023/10/04 09:05:46;;;;;;;3.17;1.50;;;32.90;55.80;;;;;;964450;148;27382;-77
2023/10/04 09:08:07;;;;;;;1.85;1.40;;;32.90;55.60;;;;;;968152;145;26226;-77
2023/10/04 09:10:33;;;;;;;4.22;1.65;;;33.00;55.10;;;;;;949534;148;27406;-77
2023/10/04 09:13:03;;;;;;;2.75;1.55;;;32.90;54.50;;;;;;957415;147;27484;-77
2023/10/04 09:15:26;;;;;;;4.50;1.62;;;32.90;54.10;;;;;;966343;145;27430;-77
2023/10/04 09:17:57;;;;;;;4.70;2.05;;;32.70;53.60;;;;;;968848;145;27396;-77
2023/10/04 09:20:35;;;;;;;2.95;1.75;;;32.60;53.20;;;;;;968130;145;27469;-77
2023/10/04 09:22:51;;;;;;;5.50;1.50;;;32.30;52.70;;;;;;949080;148;28421;-77
2023/10/04 09:25:18;;;;;;;2.90;1.70;;;32.00;52.50;;;;;;970151;145;28320;-77
2023/10/04 09:27:47;;;;;;;3.72;1.40;;;31.60;52.40;;;;;;949862;148;26270;-77
2023/10/04 09:30:21;;;;;;;2.58;1.52;;;31.30;52.30;;;;;;962270;145;26332;-77
2023/10/04 09:32:46;;;;;;;3.27;1.70;;;30.80;52.00;;;;;;969248;145;27412;-77
2023/10/04 09:35:13;;;;;;;1.67;1.15;;;30.30;51.90;;;;;;957320;147;27263;-77
2023/10/04 09:37:44;;;;;;;4.37;1.75;;;29.80;52.40;;;;;;969327;145;27429;-77
2023/10/04 09:40:06;;;;;;;2.35;1.50;;;29.40;53.00;;;;;;947575;148;28626;-77
2023/10/04 09:42:33;;;;;;;1.80;1.30;;;29.00;53.60;;;;;;953561;148;27412;-77
2023/10/04 09:45:08;;;;;;;3.55;1.52;;;28.70;54.00;;;;;;966813;145;27350;-77
2023/10/04 09:47:38;;;;;;;2.33;1.50;;;28.50;54.10;;;;;;953655;147;27307;-74
2023/10/04 09:50:05;;;;;;;2.08;1.37;;;28.20;54.10;;;;;;968935;145;27458;-76
2023/10/04 09:52:31;;;;;;;2.85;1.50;;;27.90;53.70;;;;;;958332;147;27383;-74
2023/10/04 09:54:57;;;;;;;3.50;1.75;;;27.60;53.80;;;;;;950494;148;27297;-76
2023/10/04 09:57:27;;;;;;;4.72;1.75;;;27.30;54.20;;;;;;965537;145;27346;-75
2023/10/04 09:59:51;;;;;;;2.62;1.80;;;27.00;54.40;;;;;;951887;147;27320;-74
2023/10/04 10:02:17;;;;;;;3.35;1.70;;;26.80;54.50;;;;;;952099;147;27382;-74
2023/10/04 10:04:44;;;;;;;2.70;1.50;;;26.60;54.50;;;;;;953422;147;27377;-73
2023/10/04 10:07:24;;;;;;;4.83;1.87;;;26.40;55.50;;;;;;953495;147;27335;-78
2023/10/04 10:09:58;;;;;;;1.55;1.42;;;26.20;55.00;;;;;;955374;147;27386;-75
2023/10/04 10:12:24;;;;;;;2.80;1.52;;;26.00;55.00;;;;;;952668;147;27434;-75
2023/10/04 10:14:50;;;;;;;5.28;1.75;;;25.70;55.10;;;;;;953295;147;27330;-76
2023/10/04 10:17:17;;;;;;;2.40;1.40;;;25.50;55.30;;;;;;949820;148;27462;-75
2023/10/04 10:19:46;;;;;;;1.90;1.57;;;25.30;55.50;;;;;;969219;145;27701;-74
2023/10/04 10:22:19;;;;;;;2.80;1.70;;;25.10;55.50;;;;;;958663;146;27322;-75
2023/10/04 10:24:45;;;;;;;4.28;1.57;;;24.90;55.90;;;;;;965998;148;27294;-73
2023/10/04 10:27:12;;;;;;;3.52;1.57;;;24.70;56.10;;;;;;963948;148;27311;-75
2023/10/04 10:29:38;;;;;;;3.05;1.60;;;24.50;56.30;;;;;;965149;148;27398;-75
2023/10/04 10:32:09;;;;;;;5.55;1.77;;;24.30;56.60;;;;;;964523;148;27347;-74
2023/10/04 10:34:32;;;;;;;2.80;1.45;;;24.10;56.80;;;;;;963442;148;27420;-77
2023/10/04 10:37:22;;;;;;;4.37;1.70;;;23.90;57.20;;;;;;969875;145;27500;-76
2023/10/04 10:39:46;;;;;;;1.95;1.55;;;23.80;57.60;;;;;;949727;148;27501;-75
2023/10/04 10:42:13;;;;;;;1.95;1.45;;;23.70;58.00;;;;;;954423;147;27436;-75
2023/10/04 10:44:40;;;;;;;2.40;1.45;;;23.70;58.20;;;;;;969755;145;27424;-77
2023/10/04 10:47:09;;;;;;;3.50;1.77;;;23.70;58.40;;;;;;953229;147;27471;-75
2023/10/04 10:49:51;;;;;;;3.50;1.80;;;23.70;58.40;;;;;;969579;145;27321;-75
2023/10/04 10:52:25;;;;;;;2.92;1.87;;;23.80;58.40;;;;;;933973;148;27459;-75
2023/10/04 10:54:52;;;;;;;3.35;1.67;;;23.80;58.30;;;;;;946047;148;27362;-74
2023/10/04 10:57:18;;;;;;;2.50;1.65;;;23.90;58.30;;;;;;945884;148;27411;-79
2023/10/04 10:59:46;;;;;;;4.22;1.70;;;23.90;58.10;;;;;;947333;148;27357;-82
2023/10/04 11:02:12;;;;;;;2.85;1.70;;;23.90;58.00;;;;;;946659;148;27309;-82
2023/10/04 11:04:38;;;;;;;4.22;1.70;;;23.80;58.10;;;;;;949703;146;27361;-81
2023/10/04 11:07:06;;;;;;;3.47;2.02;;;23.80;58.10;;;;;;948650;146;27857;-83
2023/10/04 11:09:37;;;;;;;4.03;1.57;;;23.80;57.90;;;;;;931009;149;27417;-81
2023/10/04 11:11:58;;;;;;;2.15;1.60;;;23.70;57.80;;;;;;947196;148;27465;-84
2023/10/04 11:14:24;;;;;;;6.08;1.62;;;23.70;57.70;;;;;;947534;148;27368;-82
2023/10/04 11:16:51;;;;;;;5.55;1.85;;;23.60;57.70;;;;;;949946;146;27405;-82
2023/10/04 11:19:18;;;;;;;3.10;1.55;;;23.60;57.80;;;;;;949179;146;27247;-82
2023/10/04 11:21:45;;;;;;;1.45;1.30;;;23.50;57.90;;;;;;948021;146;27430;-81
2023/10/04 11:24:11;;;;;;;2.15;1.30;;;23.50;58.10;;;;;;937906;149;27340;-79
2023/10/04 11:26:40;;;;;;;1.67;1.30;;;23.50;58.10;;;;;;931088;149;27376;-81
2023/10/04 11:29:07;;;;;;;2.30;1.37;;;23.60;58.20;;;;;;932341;149;27521;-82
2023/10/04 11:31:34;;;;;;;1.65;1.47;;;23.60;58.30;;;;;;949645;148;27313;-82
2023/10/04 11:34:00;;;;;;;2.02;1.60;;;23.60;58.20;;;;;;949738;148;28131;-81
2023/10/04 11:36:27;;;;;;;2.10;1.60;;;23.60;58.30;;;;;;933789;149;27364;-80
2023/10/04 11:38:53;;;;;;;4.28;1.98;;;23.60;58.10;;;;;;933230;149;27440;-82
2023/10/04 11:41:20;;;;;;;2.42;1.80;;;23.70;58.10;;;;;;951898;146;27366;-82
2023/10/04 11:43:47;;;;;;;2.20;1.75;;;23.70;58.00;;;;;;940158;149;27771;-80
2023/10/04 11:46:13;;;;;;;2.35;1.57;;;23.70;58.10;;;;;;936505;149;27442;-83
2023/10/04 11:48:40;;;;;;;2.95;1.70;;;23.70;57.90;;;;;;932116;149;27443;-82
2023/10/04 11:51:06;;;;;;;2.17;1.57;;;23.70;57.70;;;;;;933837;147;27539;-81
2023/10/04 11:53:38;;;;;;;3.45;1.52;;;23.80;57.70;;;;;;969185;145;27323;-79
2023/10/04 11:56:10;;;;;;;2.85;1.75;;;23.80;57.70;;;;;;950094;147;27364;-82
2023/10/04 11:58:47;;;;;;;4.10;1.80;;;23.80;57.80;;;;;;951097;147;27355;-82
2023/10/04 12:01:13;;;;;;;1.70;1.60;;;23.80;58.00;;;;;;949556;148;27344;-78
2023/10/04 12:03:39;;;;;;;2.85;1.80;;;23.80;57.70;;;;;;952306;147;27379;-82
2023/10/04 12:06:06;;;;;;;2.02;1.70;;;23.70;57.50;;;;;;952914;147;27299;-79
2023/10/04 12:08:33;;;;;;;2.67;2.08;;;23.70;57.40;;;;;;954787;147;27440;-82
2023/10/04 12:11:01;;;;;;;2.92;1.75;;;23.70;57.40;;;;;;953164;147;27457;-81
2023/10/04 12:13:26;;;;;;;2.10;1.90;;;23.60;56.90;;;;;;947260;148;27434;-82
2023/10/04 12:15:53;;;;;;;3.20;1.90;;;23.50;56.80;;;;;;947555;148;27346;-82
2023/10/04 12:18:19;;;;;;;2.72;1.70;;;23.50;56.90;;;;;;953327;147;27797;-78
2023/10/04 12:20:46;;;;;;;3.70;2.12;;;23.40;57.00;;;;;;969157;145;27495;-82
2023/10/04 12:23:12;;;;;;;2.45;1.80;;;23.40;57.00;;;;;;967763;145;27449;-81
2023/10/04 12:25:42;;;;;;;3.47;2.22;;;23.40;56.90;;;;;;949920;148;27418;-80
2023/10/04 12:28:08;;;;;;;3.15;2.20;;;23.30;56.80;;;;;;962703;148;27327;-75
2023/10/04 12:30:32;;;;;;;3.10;2.25;;;23.30;56.80;;;;;;964198;148;27355;-82
2023/10/04 12:32:59;;;;;;;3.67;2.33;;;23.30;56.90;;;;;;964915;148;27282;-78
2023/10/04 12:35:25;;;;;;;3.27;2.00;;;23.30;57.10;;;;;;964905;148;27404;-77
2023/10/04 12:37:52;;;;;;;2.60;2.35;;;23.30;57.20;;;;;;967819;145;27301;-80
2023/10/04 12:40:23;;;;;;;5.03;2.50;;;23.30;57.20;;;;;;953186;147;27517;-76
2023/10/04 12:42:46;;;;;;;4.37;2.02;;;23.20;57.10;;;;;;968916;145;27299;-79
2023/10/04 12:45:12;;;;;;;3.65;2.05;;;23.20;57.00;;;;;;954461;147;27312;-82
2023/10/04 12:47:41;;;;;;;3.42;2.58;;;23.20;56.90;;;;;;953443;147;27327;-83